Arethusa — 9HJR9 — position and weather

sailwx.info

Track history (hours):
 
Tides and Currents Weather Stations Pressure Air Temp Water Temp Dewpoint Dewpoint Depression Visibility Wind Speed Wind Dir Waves Ship Positions

Arethusa

Last reported at 2015-Sep-03 12:31 UTC. Time now 2015-Sep-03 13:00 UTC.
Position N 44°03' E 009°51'.

Length 60 m; draft 3 m.

Type: Passenger vessel. MMSI: 249069000.

Date/timePositionNaut miles runAvg speedWind from/ knotsBaromVisibWave heightAir tempDewpointWater temp
2015-Sep-03 12:31N 44°03' E 009°51'0 0.0
2015-Sep-03 11:31N 44°03' E 009°51'0 0.0
2015-Sep-03 10:31N 44°03' E 009°51'0 0.0
2015-Sep-03 09:31N 44°03' E 009°51'0 0.0
2015-Sep-03 08:31N 44°03' E 009°51'0 0.0
2015-Sep-03 07:31N 44°03' E 009°51'0 0.0
2015-Sep-03 06:31N 44°03' E 009°51'0 0.0
2015-Sep-03 05:28N 44°03' E 009°51'0 0.0
2015-Sep-03 04:33N 44°03' E 009°51'0 0.0
2015-Sep-03 03:33N 44°03' E 009°51'0 0.0
2015-Sep-03 02:33N 44°03' E 009°51'0 0.0
2015-Sep-03 01:33N 44°03' E 009°51'0 0.0
2015-Sep-03 00:33N 44°03' E 009°51'0 0.0
2015-Sep-02 23:33N 44°03' E 009°51'0 0.0
2015-Sep-02 22:33N 44°03' E 009°51'0 0.0
2015-Sep-02 21:33N 44°03' E 009°51'0 0.0
2015-Sep-02 20:33N 44°03' E 009°51'2 2.0
2015-Sep-02 19:33N 44°02' E 009°54'8 7.8
2015-Sep-02 18:33N 44°01' E 009°43'27 2.1
2015-Sep-02 05:26N 44°19' E 009°15'8 8.1
2015-Sep-02 04:26N 44°13' E 009°08'910.2
2015-Sep-02 03:33N 44°09' E 008°56'1310.2
2015-Sep-02 02:15N 44°03' E 008°40'63 9.4
2015-Sep-01 19:33N 43°41' E 007°17'0 0.1
2015-Sep-01 18:30N 43°42' E 007°17'0 0.0
2015-Sep-01 17:30N 43°42' E 007°17'0 0.0
2015-Sep-01 16:24N 43°42' E 007°17'0 0.0
2015-Sep-01 15:30N 43°42' E 007°17'0 0.0
2015-Sep-01 14:30N 43°42' E 007°17'0 0.0
2015-Sep-01 13:30N 43°42' E 007°17'0 0.0
2015-Sep-01 12:30N 43°42' E 007°17'0 0.0
2015-Sep-01 11:24N 43°42' E 007°17'0 0.0
2015-Sep-01 10:30N 43°42' E 007°17'0 0.0
2015-Sep-01 09:18N 43°42' E 007°17'0 0.0
2015-Sep-01 05:18N 43°42' E 007°17'0 0.0
2015-Sep-01 04:30N 43°42' E 007°17'0 0.0
2015-Sep-01 03:30N 43°42' E 007°17'0 0.0
2015-Sep-01 02:30N 43°42' E 007°17'0 0.0
2015-Aug-31 23:24N 43°42' E 007°17'0 0.0
2015-Aug-31 20:06N 43°42' E 007°17'0 0.0
2015-Aug-31 19:30N 43°42' E 007°17'0 0.0
2015-Aug-31 17:30N 43°42' E 007°17'0 0.0
2015-Aug-31 15:30N 43°42' E 007°17'0 0.0
2015-Aug-31 13:30N 43°42' E 007°17'0 0.0
2015-Aug-30 18:06N 43°42' E 007°17'0 0.0
2015-Aug-30 17:30N 43°42' E 007°17'0 0.0
2015-Aug-30 15:24N 43°42' E 007°17'0 0.0
2015-Aug-30 14:30N 43°42' E 007°17'0 0.0
2015-Aug-30 10:30N 43°42' E 007°17'0 0.0
2015-Aug-30 09:30N 43°42' E 007°17'0 0.0
2015-Aug-30 08:30N 43°42' E 007°17'0 0.0
2015-Aug-30 05:19N 43°42' E 007°17'1 1.4
2015-Aug-30 04:33N 43°41' E 007°17'2 2.2
2015-Aug-30 03:29N 43°40' E 007°20'4110.3
2015-Aug-29 23:31N 43°53' E 008°13'1111.1
2015-Aug-29 22:33N 43°58' E 008°26'1110.6
2015-Aug-29 21:33N 44°03' E 008°39'1010.4
2015-Aug-29 20:33N 44°08' E 008°52'1010.3
2015-Aug-29 19:33N 44°12' E 009°05'10 9.2
2015-Aug-29 18:27N 44°18' E 009°16'2 0.1
2015-Aug-28 22:05N 44°19' E 009°15'1010.2
2015-Aug-28 21:04N 44°12' E 009°26'610.3
2015-Aug-28 20:29N 44°08' E 009°32'1010.5
2015-Aug-28 19:33N 44°01' E 009°42'7 7.4
2015-Aug-28 18:33N 44°03' E 009°52'1 0.8
2015-Aug-28 17:33N 44°03' E 009°51'0 0.0
2015-Aug-28 16:33N 44°03' E 009°51'0 0.0
2015-Aug-28 15:33N 44°03' E 009°51'0 0.0
2015-Aug-28 14:33N 44°03' E 009°51'0 0.0
2015-Aug-28 13:33N 44°03' E 009°51'0 0.0
2015-Aug-28 12:34N 44°03' E 009°51'0 0.0
2015-Aug-28 11:33N 44°03' E 009°51'0 0.0
2015-Aug-28 10:33N 44°03' E 009°51'0 0.0
2015-Aug-28 09:17N 44°03' E 009°51'0 0.0
2015-Aug-28 08:34N 44°03' E 009°51'0 0.0
2015-Aug-28 07:33N 44°03' E 009°51'0 0.0
2015-Aug-28 06:33N 44°03' E 009°51'0 0.0
2015-Aug-28 05:33N 44°03' E 009°51'0 0.0
2015-Aug-28 04:33N 44°03' E 009°51'0 0.0
2015-Aug-28 03:33N 44°03' E 009°51'0 0.0
2015-Aug-28 02:33N 44°03' E 009°51'0 0.0
2015-Aug-28 01:33N 44°03' E 009°51'0 0.0
2015-Aug-28 00:33N 44°03' E 009°51'0 0.0
2015-Aug-27 23:33N 44°03' E 009°51'0 0.0
2015-Aug-27 22:33N 44°03' E 009°51'0 0.0
2015-Aug-27 21:33N 44°03' E 009°51'0 0.0
2015-Aug-27 20:33N 44°03' E 009°51'0 0.0
2015-Aug-27 19:33N 44°03' E 009°51'0 0.0
2015-Aug-27 18:33N 44°03' E 009°51'0 0.0
2015-Aug-27 17:33N 44°03' E 009°51'0 0.0
2015-Aug-27 16:33N 44°03' E 009°51'0 0.0
2015-Aug-27 15:33N 44°03' E 009°51'0 0.0
2015-Aug-27 14:33N 44°03' E 009°51'0 0.0
2015-Aug-27 13:33N 44°03' E 009°51'0 0.0
2015-Aug-27 12:33N 44°03' E 009°51'5 5.4
2015-Aug-27 11:33N 44°01' E 009°58'4 3.5
2015-Aug-27 10:32N 44°02' E 010°02'0 0.0
2015-Aug-27 09:33N 44°02' E 010°02'0 0.0
2015-Aug-27 08:33N 44°02' E 010°02'0 0.0
2015-Aug-27 07:33N 44°02' E 010°02'  
2015-Aug-24 14:14N 43°33' E 010°18'0 0.0
2015-Aug-24 13:32N 43°33' E 010°18'  
Track history (hours):
 
Tides and Currents Weather Stations Pressure Air Temp Water Temp Dewpoint Dewpoint Depression Visibility Wind Speed Wind Dir Waves Ship Positions

Arethusa

Last reported at 2015-Sep-03 12:31 UTC. Time now 2015-Sep-03 13:00 UTC.
Position N 44°03' E 009°51'.

Length 60 m; draft 3 m.

Type: Passenger vessel. MMSI: 249069000.

Date/timePositionNaut miles runAvg speedWind from/ knotsBaromVisibWave heightAir tempDewpointWater temp
2015-Sep-03 12:31N 44°03' E 009°51'0 0.0
2015-Sep-03 11:31N 44°03' E 009°51'0 0.0
2015-Sep-03 10:31N 44°03' E 009°51'0 0.0
2015-Sep-03 09:31N 44°03' E 009°51'0 0.0
2015-Sep-03 08:31N 44°03' E 009°51'0 0.0
2015-Sep-03 07:31N 44°03' E 009°51'0 0.0
2015-Sep-03 06:31N 44°03' E 009°51'0 0.0
2015-Sep-03 05:28N 44°03' E 009°51'0 0.0
2015-Sep-03 04:33N 44°03' E 009°51'0 0.0
2015-Sep-03 03:33N 44°03' E 009°51'0 0.0
2015-Sep-03 02:33N 44°03' E 009°51'0 0.0
2015-Sep-03 01:33N 44°03' E 009°51'0 0.0
2015-Sep-03 00:33N 44°03' E 009°51'0 0.0
2015-Sep-02 23:33N 44°03' E 009°51'0 0.0
2015-Sep-02 22:33N 44°03' E 009°51'0 0.0
2015-Sep-02 21:33N 44°03' E 009°51'0 0.0
2015-Sep-02 20:33N 44°03' E 009°51'2 2.0
2015-Sep-02 19:33N 44°02' E 009°54'8 7.8
2015-Sep-02 18:33N 44°01' E 009°43'27 2.1
2015-Sep-02 05:26N 44°19' E 009°15'8 8.1
2015-Sep-02 04:26N 44°13' E 009°08'910.2
2015-Sep-02 03:33N 44°09' E 008°56'1310.2
2015-Sep-02 02:15N 44°03' E 008°40'63 9.4
2015-Sep-01 19:33N 43°41' E 007°17'0 0.1
2015-Sep-01 18:30N 43°42' E 007°17'0 0.0
2015-Sep-01 17:30N 43°42' E 007°17'0 0.0
2015-Sep-01 16:24N 43°42' E 007°17'0 0.0
2015-Sep-01 15:30N 43°42' E 007°17'0 0.0
2015-Sep-01 14:30N 43°42' E 007°17'0 0.0
2015-Sep-01 13:30N 43°42' E 007°17'0 0.0
2015-Sep-01 12:30N 43°42' E 007°17'0 0.0
2015-Sep-01 11:24N 43°42' E 007°17'0 0.0
2015-Sep-01 10:30N 43°42' E 007°17'0 0.0
2015-Sep-01 09:18N 43°42' E 007°17'0 0.0
2015-Sep-01 05:18N 43°42' E 007°17'0 0.0
2015-Sep-01 04:30N 43°42' E 007°17'0 0.0
2015-Sep-01 03:30N 43°42' E 007°17'0 0.0
2015-Sep-01 02:30N 43°42' E 007°17'0 0.0
2015-Aug-31 23:24N 43°42' E 007°17'0 0.0
2015-Aug-31 20:06N 43°42' E 007°17'0 0.0
2015-Aug-31 19:30N 43°42' E 007°17'0 0.0
2015-Aug-31 17:30N 43°42' E 007°17'0 0.0
2015-Aug-31 15:30N 43°42' E 007°17'0 0.0
2015-Aug-31 13:30N 43°42' E 007°17'0 0.0
2015-Aug-30 18:06N 43°42' E 007°17'0 0.0
2015-Aug-30 17:30N 43°42' E 007°17'0 0.0
2015-Aug-30 15:24N 43°42' E 007°17'0 0.0
2015-Aug-30 14:30N 43°42' E 007°17'0 0.0
2015-Aug-30 10:30N 43°42' E 007°17'0 0.0
2015-Aug-30 09:30N 43°42' E 007°17'0 0.0
2015-Aug-30 08:30N 43°42' E 007°17'0 0.0
2015-Aug-30 05:19N 43°42' E 007°17'1 1.4
2015-Aug-30 04:33N 43°41' E 007°17'2 2.2
2015-Aug-30 03:29N 43°40' E 007°20'4110.3
2015-Aug-29 23:31N 43°53' E 008°13'1111.1
2015-Aug-29 22:33N 43°58' E 008°26'1110.6
2015-Aug-29 21:33N 44°03' E 008°39'1010.4
2015-Aug-29 20:33N 44°08' E 008°52'1010.3
2015-Aug-29 19:33N 44°12' E 009°05'10 9.2
2015-Aug-29 18:27N 44°18' E 009°16'2 0.1
2015-Aug-28 22:05N 44°19' E 009°15'1010.2
2015-Aug-28 21:04N 44°12' E 009°26'610.3
2015-Aug-28 20:29N 44°08' E 009°32'1010.5
2015-Aug-28 19:33N 44°01' E 009°42'7 7.4
2015-Aug-28 18:33N 44°03' E 009°52'1 0.8
2015-Aug-28 17:33N 44°03' E 009°51'0 0.0
2015-Aug-28 16:33N 44°03' E 009°51'0 0.0
2015-Aug-28 15:33N 44°03' E 009°51'0 0.0
2015-Aug-28 14:33N 44°03' E 009°51'0 0.0
2015-Aug-28 13:33N 44°03' E 009°51'0 0.0
2015-Aug-28 12:34N 44°03' E 009°51'0 0.0
2015-Aug-28 11:33N 44°03' E 009°51'0 0.0
2015-Aug-28 10:33N 44°03' E 009°51'0 0.0
2015-Aug-28 09:17N 44°03' E 009°51'0 0.0
2015-Aug-28 08:34N 44°03' E 009°51'0 0.0
2015-Aug-28 07:33N 44°03' E 009°51'0 0.0
2015-Aug-28 06:33N 44°03' E 009°51'0 0.0
2015-Aug-28 05:33N 44°03' E 009°51'0 0.0
2015-Aug-28 04:33N 44°03' E 009°51'0 0.0
2015-Aug-28 03:33N 44°03' E 009°51'0 0.0
2015-Aug-28 02:33N 44°03' E 009°51'0 0.0
2015-Aug-28 01:33N 44°03' E 009°51'0 0.0
2015-Aug-28 00:33N 44°03' E 009°51'0 0.0
2015-Aug-27 23:33N 44°03' E 009°51'0 0.0
2015-Aug-27 22:33N 44°03' E 009°51'0 0.0
2015-Aug-27 21:33N 44°03' E 009°51'0 0.0
2015-Aug-27 20:33N 44°03' E 009°51'0 0.0
2015-Aug-27 19:33N 44°03' E 009°51'0 0.0
2015-Aug-27 18:33N 44°03' E 009°51'0 0.0
2015-Aug-27 17:33N 44°03' E 009°51'0 0.0
2015-Aug-27 16:33N 44°03' E 009°51'0 0.0
2015-Aug-27 15:33N 44°03' E 009°51'0 0.0
2015-Aug-27 14:33N 44°03' E 009°51'0 0.0
2015-Aug-27 13:33N 44°03' E 009°51'0 0.0
2015-Aug-27 12:33N 44°03' E 009°51'5 5.4
2015-Aug-27 11:33N 44°01' E 009°58'4 3.5
2015-Aug-27 10:32N 44°02' E 010°02'0 0.0
2015-Aug-27 09:33N 44°02' E 010°02'0 0.0
2015-Aug-27 08:33N 44°02' E 010°02'0 0.0
2015-Aug-27 07:33N 44°02' E 010°02'  
2015-Aug-24 14:14N 43°33' E 010°18'0 0.0
2015-Aug-24 13:32N 43°33' E 010°18'  

Dump ship's entire track history